createdAt,value
2023-01-23T05:02:14.088Z,100123.94
2023-01-23T05:06:28.068Z,100118.94
2023-01-23T05:10:41.984Z,100127.09
2023-01-23T05:14:56.320Z,100126.81
2023-01-23T05:19:08.313Z,100131.63
2023-01-23T05:23:21.495Z,100139.34
2023-01-23T05:27:35.633Z,100147.94
2023-01-23T05:31:47.709Z,100157.81
2023-01-23T05:36:18.625Z,100157.94
2023-01-23T05:40:30.456Z,100159.91
2023-01-23T05:45:04.995Z,100167.94
2023-01-23T05:49:25.810Z,100164.69
2023-01-23T05:53:37.370Z,100178.94
2023-01-23T05:57:48.841Z,100180.88
2023-01-23T06:02:34.557Z,100182.22
2023-01-23T06:07:14.037Z,100190.81
2023-01-23T06:11:25.792Z,100191.66
2023-01-23T06:15:37.871Z,100200.50
2023-01-23T06:19:54.210Z,100205.53
2023-01-23T06:24:06.178Z,100200.19
2023-01-23T06:28:17.750Z,100203.06
2023-01-23T06:32:29.362Z,100186.38
2023-01-23T06:36:42.465Z,100183.94
2023-01-23T06:40:54.188Z,100181.72
2023-01-23T06:45:15.885Z,100192.00
2023-01-23T06:49:27.377Z,100187.56
2023-01-23T06:53:38.888Z,100194.34
2023-01-23T06:57:50.462Z,100191.38
2023-01-23T07:02:02.856Z,100202.69
2023-01-23T07:06:27.688Z,100206.50
2023-01-23T07:10:39.782Z,100206.72
2023-01-23T07:14:51.239Z,100217.34
2023-01-23T07:19:08.211Z,100226.06
2023-01-23T07:23:23.693Z,100217.22
2023-01-23T07:27:35.176Z,100226.63
2023-01-23T07:31:46.684Z,100235.56
2023-01-23T07:35:58.160Z,100245.63
2023-01-23T07:40:10.338Z,100253.84
2023-01-23T07:44:22.683Z,100253.03
2023-01-23T07:48:34.116Z,100256.75
2023-01-23T07:52:45.569Z,100266.09
2023-01-23T07:56:57.000Z,100277.69
2023-01-23T08:01:11.930Z,100277.34
2023-01-23T08:05:23.778Z,100284.09
2023-01-23T08:09:35.259Z,100277.09
2023-01-23T08:13:50.529Z,100276.94
2023-01-23T08:18:01.949Z,100282.78
2023-01-23T08:22:13.418Z,100282.09
2023-01-23T08:26:24.841Z,100269.09
2023-01-23T08:30:37.170Z,100271.44
2023-01-23T08:34:48.950Z,100269.13
2023-01-23T08:39:00.493Z,100270.19
2023-01-23T08:43:13.879Z,100273.94
2023-01-23T08:47:25.285Z,100264.72
2023-01-23T08:51:36.749Z,100268.44
2023-01-23T08:55:48.174Z,100270.53
2023-01-23T08:59:59.630Z,100274.66
2023-01-23T09:04:11.094Z,100274.84
2023-01-23T09:08:22.578Z,100272.34
2023-01-23T09:12:34.011Z,100277.78
2023-01-23T09:16:45.543Z,100279.88
2023-01-23T09:20:57.671Z,100279.00
2023-01-23T09:25:09.652Z,100280.88
2023-01-23T09:29:21.101Z,100283.88
2023-01-23T09:33:33.172Z,100281.69
2023-01-23T09:37:59.737Z,100284.72
2023-01-23T09:42:18.244Z,100288.44
2023-01-23T09:46:45.879Z,100287.63
2023-01-23T09:51:15.882Z,100285.72
2023-01-23T09:55:49.128Z,100291.31
2023-01-23T10:00:15.517Z,100284.44
2023-01-23T10:04:27.340Z,100287.88
2023-01-23T10:08:50.918Z,100282.53
2023-01-23T10:13:02.883Z,100283.03
2023-01-23T10:17:45.233Z,100287.59
2023-01-23T10:22:22.976Z,100275.78
2023-01-23T10:26:40.588Z,100269.13
2023-01-23T10:30:56.514Z,100273.06
2023-01-23T10:35:27.436Z,100275.25
2023-01-23T10:40:00.161Z,100269.41
2023-01-23T10:44:19.995Z,100280.25
2023-01-23T10:48:50.008Z,100263.19
2023-01-23T10:53:16.957Z,100265.09
2023-01-23T10:57:31.324Z,100269.69
2023-01-23T11:02:14.613Z,100270.28
2023-01-23T11:06:26.964Z,100272.06
2023-01-23T11:10:38.414Z,100272.06
2023-01-23T11:14:50.993Z,100263.22
2023-01-23T11:19:18.159Z,100262.13
2023-01-23T11:23:30.995Z,100249.25
2023-01-23T11:27:56.853Z,100245.06
2023-01-23T11:32:13.614Z,100242.25
2023-01-23T11:36:50.072Z,100237.94
2023-01-23T11:41:04.209Z,100235.13
2023-01-23T11:45:18.796Z,100237.84
2023-01-23T11:50:03.084Z,100222.78
2023-01-23T11:55:03.397Z,100243.72
2023-01-23T11:59:46.386Z,100226.81
2023-01-23T12:04:30.224Z,100242.91
2023-01-23T12:09:04.485Z,100240.47
2023-01-23T12:13:34.205Z,100249.84
2023-01-23T12:17:56.756Z,100246.91
2023-01-23T12:22:15.597Z,100254.41
2023-01-23T12:26:29.865Z,100251.19
2023-01-23T12:31:08.196Z,100251.47
2023-01-23T12:35:58.411Z,100253.13
2023-01-23T12:40:22.794Z,100245.84
2023-01-23T12:44:48.212Z,100241.28
2023-01-23T12:49:49.156Z,100221.00
2023-01-23T12:54:04.616Z,100219.97
2023-01-23T12:58:18.619Z,100222.38
2023-01-23T13:02:42.238Z,100207.38
2023-01-23T13:07:20.825Z,100208.50
2023-01-23T13:12:22.151Z,100200.50
2023-01-23T13:16:33.962Z,100205.34
2023-01-23T13:21:16.989Z,100206.00
2023-01-23T13:25:38.127Z,100199.72
2023-01-23T13:29:53.168Z,100205.34
2023-01-23T13:34:16.868Z,100206.66
2023-01-23T13:38:38.787Z,100198.66
2023-01-23T13:42:50.684Z,100205.84
2023-01-23T14:20:19.378Z,100193.69
2023-01-23T14:24:53.250Z,100195.94
2023-01-23T14:29:33.964Z,100187.34
2023-01-23T14:33:45.411Z,100192.72
2023-01-23T14:38:02.187Z,100202.34
2023-01-23T14:42:25.502Z,100197.03
2023-01-23T14:46:40.180Z,100197.25
2023-01-23T14:51:03.019Z,100205.50
2023-01-23T14:55:29.739Z,100203.53
2023-01-23T14:59:43.173Z,100197.78
2023-01-23T15:03:58.056Z,100204.63
2023-01-23T15:08:21.083Z,100212.63
2023-01-23T15:12:32.553Z,100208.00
2023-01-23T15:16:44.928Z,100212.47
2023-01-23T15:21:05.323Z,100213.84
2023-01-23T15:25:30.626Z,100211.03
2023-01-23T15:29:42.089Z,100214.00
2023-01-23T15:33:55.488Z,100221.88
2023-01-23T15:38:16.597Z,100212.41
2023-01-23T15:42:32.776Z,100217.63
2023-01-23T15:46:44.369Z,100220.41
2023-01-23T15:50:55.876Z,100220.69
2023-01-23T15:55:10.496Z,100223.66
2023-01-23T15:59:21.994Z,100215.25
2023-01-23T16:03:33.535Z,100227.94
2023-01-23T16:07:46.998Z,100216.22
2023-01-23T16:12:02.693Z,100219.59
2023-01-23T16:16:16.137Z,100212.38
2023-01-23T16:20:38.498Z,100214.72
2023-01-23T16:24:50.309Z,100217.84
2023-01-23T16:29:13.233Z,100216.69
2023-01-23T16:33:25.065Z,100216.63
2023-01-23T16:37:39.153Z,100207.09
2023-01-23T16:41:51.057Z,100214.63
2023-01-23T16:46:02.682Z,100218.94
2023-01-23T16:50:17.040Z,100221.50
2023-01-23T16:54:28.555Z,100200.44
2023-01-23T16:58:40.967Z,100203.25
2023-01-23T17:02:55.905Z,100209.38
2023-01-23T17:07:14.162Z,100206.16
2023-01-23T17:11:39.841Z,100213.25
2023-01-23T17:15:54.777Z,100210.69
2023-01-23T17:20:07.002Z,100202.38
2023-01-23T17:24:18.509Z,100210.22
2023-01-23T17:28:30.052Z,100218.81
2023-01-23T17:32:41.535Z,100205.22
2023-01-23T17:36:54.946Z,100209.81
2023-01-23T17:41:06.551Z,100209.59
2023-01-23T17:45:21.693Z,100214.66
2023-01-23T17:49:33.340Z,100223.53
2023-01-23T17:53:45.552Z,100230.50
2023-01-23T17:57:57.036Z,100237.09
2023-01-23T18:02:25.828Z,100226.06
2023-01-23T18:06:37.293Z,100230.44
2023-01-23T18:10:52.425Z,100241.75
2023-01-23T18:15:13.847Z,100235.25
2023-01-23T18:19:27.455Z,100240.66
2023-01-23T18:23:39.475Z,100237.41
2023-01-23T18:27:54.219Z,100236.69
2023-01-23T18:32:33.608Z,100230.50
2023-01-23T18:36:56.688Z,100236.47
2023-01-23T18:41:20.212Z,100243.44
2023-01-23T18:45:32.268Z,100247.88
2023-01-23T18:49:44.149Z,100234.53
2023-01-23T18:54:05.713Z,100245.25
2023-01-23T18:58:38.929Z,100238.56
2023-01-23T19:02:55.234Z,100241.84
2023-01-23T19:07:15.894Z,100235.56
2023-01-23T19:11:43.802Z,100245.25
2023-01-23T19:16:18.495Z,100243.69
2023-01-23T19:20:32.890Z,100259.75
2023-01-23T19:24:44.633Z,100258.09
2023-01-23T19:28:59.766Z,100265.75
2023-01-23T19:33:18.484Z,100280.72
2023-01-23T19:37:29.935Z,100282.50
2023-01-23T19:41:46.825Z,100278.69
2023-01-23T19:45:59.568Z,100270.41
2023-01-23T19:50:16.880Z,100271.09
2023-01-23T19:54:28.371Z,100275.41
2023-01-23T19:58:41.416Z,100271.16
2023-01-23T20:02:53.737Z,100278.47
2023-01-23T20:07:05.203Z,100276.66
2023-01-23T20:11:16.741Z,100278.97
2023-01-23T20:15:29.850Z,100286.13
2023-01-23T20:19:41.384Z,100295.56
2023-01-23T20:23:52.925Z,100290.84
2023-01-23T20:28:04.685Z,100294.19
2023-01-23T20:32:16.168Z,100292.72
2023-01-23T20:36:28.539Z,100299.00
2023-01-23T20:40:39.961Z,100298.78
2023-01-23T20:44:51.406Z,100303.22
2023-01-23T20:49:02.935Z,100300.84
2023-01-23T20:53:30.542Z,100290.56
2023-01-23T20:58:00.766Z,100304.09
2023-01-23T21:02:24.254Z,100295.28
2023-01-23T21:06:35.734Z,100296.88
2023-01-23T21:10:47.266Z,100307.81
2023-01-23T21:14:59.051Z,100306.38
2023-01-23T21:19:10.533Z,100297.44
2023-01-23T21:23:21.983Z,100304.31
2023-01-23T21:27:33.516Z,100295.97
2023-01-23T21:31:45.118Z,100300.41
2023-01-23T21:35:56.663Z,100301.25
2023-01-23T21:40:09.004Z,100319.34
2023-01-23T21:44:20.454Z,100305.09
2023-01-23T21:48:33.276Z,100306.56
2023-01-23T21:52:44.924Z,100314.69
2023-01-23T21:56:56.448Z,100302.53
2023-01-23T22:01:31.998Z,100310.56
2023-01-23T22:05:43.561Z,100306.84
2023-01-23T22:09:55.711Z,100308.91
2023-01-23T22:14:07.259Z,100316.72
2023-01-23T22:18:19.784Z,100305.16
2023-01-23T22:22:31.211Z,100305.44
2023-01-23T22:26:43.070Z,100301.75
